Bom Jesus, Brazil
Current Conditions -  °F | °C
As of 2:00 AM on Sunday 26 Oct 2014 (Local Time) from SBUL Reporting Station
Overcast Overcast  
Wind Chill: 64°   Ceiling: 7000
Heat Index: 64°   Visibility: 6mi
Dew Point: 63°   Wind: 13mph
Humidity: 94%   Direction: 110°ESE
Pressure: 30.03"   Gusts: NA
Location:  18.21°S, 49.74°W
Report Text: SBUL 260400Z 11011KT 9999 FEW007 OVC070 18/17 Q1017
Loading
Personal Weather Stations






























Interactive Weather Map
Tropical Storm Tracking
New forecast layout! Learn more

10-Day Weather Forecast

Advertisements
Track Severe Weather on mobile